Have a Safe July 4th! 

Flight Track Log - Related Links

Times and Time Zones

All times are in EDT time to prevent confusion due to time zone crossing. See the SWA414 flight status page for this flight to view local times or setup timezone preferences in your user account.

Time Position Orientation Groundspeed Altitude Reporting Facility
EDT Latitude Longitude Course Direction KTS MPH feet Rate Location/Type
Mon 07:12:16 PM 41.6425 -87.8169 201° Southwest 261 300 6,500  Level Chicago Center
Mon 07:14:20 PM 41.5119 -87.9511 218° Southwest 298 343 12,000 2,353 Climbing Chicago Center
Mon 07:15:00 PM 41.2659 -88.2337 201° Southwest  Level FlightAware Approximate
Mon 07:16:00 PM 41.1632 -88.2684 201° Southwest  Level FlightAware Approximate
Mon 07:16:08 PM 41.3867 -88.1083 223° Southwest 354 407 15,600  Level Kansas City Center
Mon 07:16:24 PM 41.3544 -88.1203 196° South 386 444 17,400 3,692 Climbing Chicago Center
Mon 07:17:00 PM 41.0626 -88.3187 201° Southwest  Level FlightAware Approximate
Mon 07:17:26 PM 41.2528 -88.1744 202° Southwest 396 456 20,400  Level Chicago Center
Mon 07:18:28 PM 41.1181 -88.2469 202° Southwest 438 504 23,100 2,419 Climbing Chicago Center
Mon 07:19:30 PM 41.0044 -88.3306 209° Southwest 466 536 25,400 2,371 Climbing Chicago Center
Mon 07:20:32 PM 40.9042 -88.4406 220° Southwest 479 551 28,000 2,496 Climbing Chicago Center
Mon 07:21:35 PM 40.8194 -88.5694 229° Southwest 468 539 30,600 2,153 Climbing Chicago Center
Mon 07:23:22 PM 40.6536 -88.7864 225° Southwest 471 542 34,100 2,026 Climbing Kansas City Center
Mon 07:25:26 PM 40.4517 -89.0581 226° Southwest 467 537 38,400 1,971 Climbing Kansas City Center
Mon 07:25:42 PM 40.4325 -89.0842 226° Southwest 474 545 38,700 1,231 Climbing Chicago Center
Mon 07:26:44 PM 40.3417 -89.2047 225° Southwest 466 536 40,000 629 Climbing Chicago Center
Mon 07:27:46 PM 40.2528 -89.3233 226° Southwest 458 527 40,000  Level Chicago Center
Mon 07:28:48 PM 40.1600 -89.4433 225° Southwest 464 534 40,000  Level Chicago Center
Mon 07:29:50 PM 40.0683 -89.5642 225° Southwest 465 535 40,000  Level Chicago Center
Mon 07:30:35 PM 39.9936 -89.6631 225° Southwest 466 536 40,000  Level Kansas City Center
Mon 07:31:37 PM 39.9025 -89.7822 225° Southwest 464 534 40,000  Level Kansas City Center
Mon 07:33:58 PM 39.6828 -90.0619 224° Southwest 463 533 40,000  Level Chicago Center
Mon 07:34:43 PM 39.6244 -90.1431 227° Southwest 461 531 40,000  Level Kansas City Center
Mon 07:35:45 PM 39.5147 -90.2831 225° Southwest 462 532 40,000  Level Kansas City Center
Mon 07:36:46 PM 39.4242 -90.4014 225° Southwest 464 534 40,000  Level Kansas City Center
Mon 07:37:48 PM 39.3311 -90.5186 224° Southwest 468 539 40,000  Level Kansas City Center
Mon 07:38:50 PM 39.2392 -90.6358 225° Southwest 468 539 40,000  Level Kansas City Center
Mon 07:39:52 PM 39.1489 -90.7503 225° Southwest 463 533 40,000  Level Kansas City Center
Mon 07:40:54 PM 39.0550 -90.8667 224° Southwest 467 537 40,000  Level Kansas City Center
Mon 07:42:00 PM 38.9626 -90.9669 220° Southwest  Level FlightAware Approximate
Mon 07:42:58 PM 38.8589 -91.1275 220° Southwest 465 535 40,000  Level Kansas City Center
Mon 07:43:59 PM 38.7928 -91.2633 238° Southwest 458 527 40,000  Level Kansas City Center
Mon 07:45:01 PM 38.7272 -91.3981 238° Southwest 451 519 40,000  Level Kansas City Center
Mon 07:46:03 PM 38.6561 -91.5372 237° Southwest 453 521 40,000  Level Kansas City Center
Mon 07:48:06 PM 38.5028 -91.8350 237° Southwest 456 525 40,000  Level Kansas City Center
Mon 07:49:08 PM 38.4333 -91.9708 237° Southwest 458 527 40,000  Level Kansas City Center
Mon 07:50:10 PM 38.3636 -92.1053 237° Southwest 457 526 40,000  Level Kansas City Center
Mon 07:51:11 PM 38.2922 -92.2383 236° Southwest 457 526 40,000  Level Kansas City Center
Mon 07:52:13 PM 38.2231 -92.3725 237° Southwest 458 527 40,000  Level Kansas City Center
Mon 07:53:15 PM 38.1567 -92.5008 237° Southwest 462 532 40,000  Level Kansas City Center
Mon 07:54:16 PM 38.0722 -92.6606 236° Southwest 459 528 40,000 -488 Level Kansas City Center
Mon 07:55:18 PM 38.0014 -92.7933 236° Southwest 451 519 39,000 -968 Descending Kansas City Center
Mon 07:56:20 PM 37.9356 -92.9181 236° Southwest 435 501 38,000 -927 Descending Kansas City Center
Mon 07:57:21 PM 37.8672 -93.0456 236° Southwest 434 499 37,100 -927 Descending Kansas City Center
Mon 07:58:23 PM 37.7972 -93.1758 236° Southwest 442 509 36,100 -927 Descending Kansas City Center
Mon 07:59:24 PM 37.7256 -93.3075 235° Southwest 450 518 35,200 -927 Descending Kansas City Center
Mon 08:00:26 PM 37.6553 -93.4400 236° Southwest 454 522 34,200 -389 Descending Kansas City Center
Mon 08:02:00 PM 37.5499 -93.6151 236° Southwest  Level FlightAware Approximate
Mon 08:02:29 PM 37.4975 -93.7306 236° Southwest 454 522 34,000  Level Kansas City Center
Mon 08:03:31 PM 37.4253 -93.8628 236° Southwest 456 525 34,000 -537 Level Kansas City Center
Mon 08:04:32 PM 37.3533 -93.9942 235° Southwest 456 525 32,900 -927 Descending Kansas City Center
Mon 08:05:34 PM 37.2892 -94.1106 235° Southwest 454 522 32,100 -968 Descending Kansas City Center
Mon 08:06:36 PM 37.2036 -94.2647 235° Southwest 450 518 30,900 -1,005 Descending Kansas City Center
Mon 08:08:00 PM 37.1024 -94.4132 229° Southwest  Level FlightAware Approximate
Mon 08:08:39 PM 37.0578 -94.5275 229° Southwest 460 529 29,000  Level Kansas City Center
Mon 08:09:41 PM 36.9836 -94.6608 235° Southwest 465 535 27,700 -2,537 Descending Kansas City Center
Mon 08:10:42 PM 36.9097 -94.7928 235° Southwest 465 535 23,800 -3,659 Descending Kansas City Center
Mon 08:11:44 PM 36.8392 -94.9200 235° Southwest 453 521 20,200 -3,387 Descending Kansas City Center
Mon 08:12:46 PM 36.7719 -95.0386 235° Southwest 430 495 16,800 -3,317 Descending Kansas City Center
Mon 08:13:47 PM 36.7044 -95.1544 234° Southwest 416 479 13,400 -3,495 Descending Kansas City Center
Mon 08:14:17 PM 36.6597 -95.2294 233° Southwest 399 459 11,500 -2,323 Descending Kansas City Center
Mon 08:14:49 PM 36.6228 -95.2750 225° Southwest 381 438 11,000 -1,000 Descending Kansas City Center
Mon 08:15:17 PM 36.5831 -95.3078 214° Southwest 348 400 10,500 -1,084 Descending Kansas City Center
Mon 08:16:12 PM 36.5142 -95.3614 212° Southwest 306 352 9,500 -1,125 Descending Kansas City Center
Mon 08:16:53 PM 36.4736 -95.3939 213° Southwest 311 358 8,700 -1,294 Descending Kansas City Center
Mon 08:17:54 PM 36.4097 -95.4433 212° Southwest 297 342 7,300 -1,605 Descending Kansas City Center
Mon 08:18:19 PM 36.3803 -95.4836 228° Southwest 285 328 6,400 -1,839 Descending Kansas City Center
Mon 08:18:56 PM 36.3503 -95.5319 232° Southwest 292 336 5,400 -1,513 Descending Kansas City Center
Mon 08:20:14 PM 36.2922 -95.6253 232° Southwest 262 302 3,500 -1,415 Descending Kansas City Center
Mon 08:20:59 PM 36.2625 -95.6744 233° Southwest 266 306 2,500 -984 Descending Kansas City Center
Mon 08:21:15 PM 36.2517 -95.6903 230° Southwest 239 275 2,500 97 Level Kansas City Center
Mon 08:22:01 PM 36.2278 -95.7308 234° Southwest 229 264 2,600 -111 Climbing Kansas City Center
Mon 08:23:03 PM 36.1994 -95.7814 235° Southwest 199 229 2,300 -519 Descending Kansas City Center
Mon 08:23:22 PM 36.1961 -95.8011 258° West 136 157 1,900 -885 Descending Kansas City Center
Mon 08:24:04 PM 36.1958 -95.8267 269° West 156 180 1,400 -635 Descending Kansas City Center
Mon 08:25:06 PM 36.1958 -95.8728 270° West 141 162 800 -581 Descending Kansas City Center
Mon 08:27:00 PM 36.1833 -95.8833 230° Southwest  Level FlightAware Approximate

Login

Don't have an account? Register now (free) for customized features, flight alerts, and more!